Jitauna, Brazil
Current Conditions -  °F | °C
As of 9:00 AM on Friday 19 Dec 2014 (Local Time) from SBIL Reporting Station
Light Rain Light Rain  
Wind Chill: 75°   Ceiling: 1000
Heat Index: 75°   Visibility: 1.2mi
Dew Point: 73°   Wind: 12mph
Humidity: 94%   Direction: 50°NE
Pressure: NA   Gusts: NA
Location:  14.02°S, 39.89°W
Report Text: SBIL 191200Z 05010KT 2000 -RA BR SCT005 BKN010 OVC100 24/23 Q1013
Loading
Personal Weather Stations






























Interactive Weather Map New forecast layout! Learn more

10-Day Weather Forecast

Advertisements
Track Severe Weather on mobile